sensor_id;sensor_type;location;lat;lon;timestamp;P1;durP1;ratioP1;P2;durP2;ratioP2
53654;SDS011;39558;52.028;8.536;2023-05-07T00:02:21;4.70;;;2.00;;
53654;SDS011;39558;52.028;8.536;2023-05-07T00:04:47;4.18;;;1.77;;
53654;SDS011;39558;52.028;8.536;2023-05-07T00:07:13;3.08;;;1.65;;
53654;SDS011;39558;52.028;8.536;2023-05-07T00:09:39;3.28;;;1.80;;
53654;SDS011;39558;52.028;8.536;2023-05-07T00:12:05;2.40;;;1.50;;
53654;SDS011;39558;52.028;8.536;2023-05-07T00:14:31;3.17;;;1.60;;
53654;SDS011;39558;52.028;8.536;2023-05-07T00:16:57;4.28;;;1.90;;
53654;SDS011;39558;52.028;8.536;2023-05-07T00:19:23;4.65;;;2.10;;
53654;SDS011;39558;52.028;8.536;2023-05-07T00:21:49;2.60;;;1.45;;
53654;SDS011;39558;52.028;8.536;2023-05-07T00:24:14;3.30;;;1.75;;
53654;SDS011;39558;52.028;8.536;2023-05-07T00:26:40;2.80;;;1.60;;
53654;SDS011;39558;52.028;8.536;2023-05-07T00:29:06;3.05;;;1.70;;
53654;SDS011;39558;52.028;8.536;2023-05-07T00:31:32;3.53;;;1.90;;
53654;SDS011;39558;52.028;8.536;2023-05-07T00:33:58;3.53;;;1.92;;
53654;SDS011;39558;52.028;8.536;2023-05-07T00:36:24;3.63;;;2.38;;
53654;SDS011;39558;52.028;8.536;2023-05-07T00:38:51;3.53;;;1.50;;
53654;SDS011;39558;52.028;8.536;2023-05-07T00:41:17;4.13;;;1.92;;
53654;SDS011;39558;52.028;8.536;2023-05-07T00:43:43;2.95;;;1.75;;
53654;SDS011;39558;52.028;8.536;2023-05-07T00:46:09;4.50;;;2.30;;
53654;SDS011;39558;52.028;8.536;2023-05-07T00:48:35;3.80;;;2.10;;
53654;SDS011;39558;52.028;8.536;2023-05-07T00:51:00;3.72;;;1.65;;
53654;SDS011;39558;52.028;8.536;2023-05-07T00:53:26;3.70;;;1.92;;
53654;SDS011;39558;52.028;8.536;2023-05-07T00:55:52;3.70;;;1.80;;
53654;SDS011;39558;52.028;8.536;2023-05-07T00:58:19;3.15;;;1.80;;
53654;SDS011;39558;52.028;8.536;2023-05-07T01:00:45;3.55;;;1.67;;
53654;SDS011;39558;52.028;8.536;2023-05-07T01:03:11;4.07;;;2.03;;
53654;SDS011;39558;52.028;8.536;2023-05-07T01:05:37;2.55;;;1.52;;
53654;SDS011;39558;52.028;8.536;2023-05-07T01:08:03;2.50;;;1.60;;
53654;SDS011;39558;52.028;8.536;2023-05-07T01:10:30;2.28;;;1.45;;
53654;SDS011;39558;52.028;8.536;2023-05-07T01:12:56;4.78;;;1.63;;
53654;SDS011;39558;52.028;8.536;2023-05-07T01:15:22;3.45;;;2.00;;
53654;SDS011;39558;52.028;8.536;2023-05-07T01:17:48;3.47;;;2.00;;
53654;SDS011;39558;52.028;8.536;2023-05-07T01:20:14;2.67;;;1.63;;
53654;SDS011;39558;52.028;8.536;2023-05-07T01:22:40;4.15;;;1.60;;
53654;SDS011;39558;52.028;8.536;2023-05-07T01:25:07;3.50;;;2.13;;
53654;SDS011;39558;52.028;8.536;2023-05-07T01:27:33;3.08;;;1.50;;
53654;SDS011;39558;52.028;8.536;2023-05-07T01:30:00;3.53;;;1.48;;
53654;SDS011;39558;52.028;8.536;2023-05-07T01:32:33;3.88;;;1.70;;
53654;SDS011;39558;52.028;8.536;2023-05-07T01:35:01;3.28;;;1.73;;
53654;SDS011;39558;52.028;8.536;2023-05-07T01:37:28;4.80;;;1.58;;
53654;SDS011;39558;52.028;8.536;2023-05-07T01:39:54;3.70;;;1.67;;
53654;SDS011;39558;52.028;8.536;2023-05-07T01:42:21;3.15;;;1.30;;
53654;SDS011;39558;52.028;8.536;2023-05-07T01:44:47;4.05;;;1.70;;
53654;SDS011;39558;52.028;8.536;2023-05-07T01:47:13;3.40;;;1.58;;
53654;SDS011;39558;52.028;8.536;2023-05-07T01:49:39;4.25;;;2.00;;
53654;SDS011;39558;52.028;8.536;2023-05-07T01:52:05;3.42;;;1.63;;
53654;SDS011;39558;52.028;8.536;2023-05-07T01:54:31;4.22;;;1.98;;
53654;SDS011;39558;52.028;8.536;2023-05-07T01:56:57;3.35;;;1.60;;
53654;SDS011;39558;52.028;8.536;2023-05-07T01:59:23;2.80;;;1.35;;
53654;SDS011;39558;52.028;8.536;2023-05-07T02:01:49;2.78;;;1.60;;
53654;SDS011;39558;52.028;8.536;2023-05-07T02:04:15;3.05;;;1.85;;
53654;SDS011;39558;52.028;8.536;2023-05-07T02:06:41;3.20;;;1.60;;
53654;SDS011;39558;52.028;8.536;2023-05-07T02:09:07;3.15;;;1.45;;
53654;SDS011;39558;52.028;8.536;2023-05-07T02:11:33;4.45;;;1.73;;
53654;SDS011;39558;52.028;8.536;2023-05-07T02:13:59;3.53;;;1.60;;
53654;SDS011;39558;52.028;8.536;2023-05-07T02:16:25;2.85;;;1.67;;
53654;SDS011;39558;52.028;8.536;2023-05-07T02:18:51;3.35;;;1.40;;
53654;SDS011;39558;52.028;8.536;2023-05-07T02:21:17;2.67;;;1.60;;
53654;SDS011;39558;52.028;8.536;2023-05-07T02:23:43;3.03;;;1.83;;
53654;SDS011;39558;52.028;8.536;2023-05-07T02:26:10;4.07;;;1.65;;
53654;SDS011;39558;52.028;8.536;2023-05-07T02:28:36;4.85;;;1.58;;
53654;SDS011;39558;52.028;8.536;2023-05-07T02:31:02;3.72;;;1.60;;
53654;SDS011;39558;52.028;8.536;2023-05-07T02:33:28;3.40;;;1.83;;
53654;SDS011;39558;52.028;8.536;2023-05-07T02:35:54;3.33;;;1.55;;
53654;SDS011;39558;52.028;8.536;2023-05-07T02:38:20;2.92;;;1.67;;
53654;SDS011;39558;52.028;8.536;2023-05-07T02:40:46;5.57;;;1.70;;
53654;SDS011;39558;52.028;8.536;2023-05-07T02:43:12;2.67;;;1.58;;
53654;SDS011;39558;52.028;8.536;2023-05-07T02:45:38;3.53;;;2.03;;
53654;SDS011;39558;52.028;8.536;2023-05-07T02:48:04;2.88;;;1.50;;
53654;SDS011;39558;52.028;8.536;2023-05-07T02:50:31;3.50;;;1.70;;
53654;SDS011;39558;52.028;8.536;2023-05-07T02:52:57;2.78;;;1.45;;
53654;SDS011;39558;52.028;8.536;2023-05-07T02:55:23;2.88;;;1.70;;
53654;SDS011;39558;52.028;8.536;2023-05-07T02:57:49;3.67;;;1.50;;
53654;SDS011;39558;52.028;8.536;2023-05-07T03:00:15;3.05;;;1.75;;
53654;SDS011;39558;52.028;8.536;2023-05-07T03:02:42;2.92;;;1.60;;
53654;SDS011;39558;52.028;8.536;2023-05-07T03:05:08;2.60;;;1.48;;
53654;SDS011;39558;52.028;8.536;2023-05-07T03:07:35;2.78;;;1.38;;
53654;SDS011;39558;52.028;8.536;2023-05-07T03:10:01;3.30;;;1.95;;
53654;SDS011;39558;52.028;8.536;2023-05-07T03:12:26;2.88;;;1.98;;
53654;SDS011;39558;52.028;8.536;2023-05-07T03:14:52;2.83;;;1.38;;
53654;SDS011;39558;52.028;8.536;2023-05-07T03:17:18;2.70;;;1.50;;
53654;SDS011;39558;52.028;8.536;2023-05-07T03:19:44;5.80;;;2.88;;
53654;SDS011;39558;52.028;8.536;2023-05-07T03:22:10;3.45;;;1.70;;
53654;SDS011;39558;52.028;8.536;2023-05-07T03:24:36;2.55;;;1.42;;
53654;SDS011;39558;52.028;8.536;2023-05-07T03:27:02;2.80;;;1.33;;
53654;SDS011;39558;52.028;8.536;2023-05-07T03:29:28;3.20;;;1.42;;
53654;SDS011;39558;52.028;8.536;2023-05-07T03:31:54;2.65;;;1.48;;
53654;SDS011;39558;52.028;8.536;2023-05-07T03:34:20;3.63;;;2.42;;
53654;SDS011;39558;52.028;8.536;2023-05-07T03:36:50;2.90;;;1.60;;
53654;SDS011;39558;52.028;8.536;2023-05-07T03:39:16;2.78;;;1.50;;
53654;SDS011;39558;52.028;8.536;2023-05-07T03:41:42;2.90;;;1.40;;
53654;SDS011;39558;52.028;8.536;2023-05-07T03:44:08;3.67;;;2.10;;
53654;SDS011;39558;52.028;8.536;2023-05-07T03:46:33;2.88;;;1.58;;
53654;SDS011;39558;52.028;8.536;2023-05-07T03:49:00;2.50;;;1.40;;
53654;SDS011;39558;52.028;8.536;2023-05-07T03:51:25;3.08;;;1.55;;
53654;SDS011;39558;52.028;8.536;2023-05-07T03:53:51;4.15;;;1.65;;
53654;SDS011;39558;52.028;8.536;2023-05-07T03:56:18;2.10;;;1.40;;
53654;SDS011;39558;52.028;8.536;2023-05-07T03:58:44;3.50;;;1.98;;
53654;SDS011;39558;52.028;8.536;2023-05-07T04:01:10;2.60;;;1.50;;
53654;SDS011;39558;52.028;8.536;2023-05-07T04:03:36;3.55;;;1.25;;
53654;SDS011;39558;52.028;8.536;2023-05-07T04:06:02;3.40;;;1.40;;
53654;SDS011;39558;52.028;8.536;2023-05-07T04:08:28;2.95;;;1.45;;
53654;SDS011;39558;52.028;8.536;2023-05-07T04:10:57;3.28;;;1.75;;
53654;SDS011;39558;52.028;8.536;2023-05-07T04:13:24;3.22;;;1.83;;
53654;SDS011;39558;52.028;8.536;2023-05-07T04:15:50;2.70;;;1.52;;
53654;SDS011;39558;52.028;8.536;2023-05-07T04:18:16;3.03;;;1.50;;
53654;SDS011;39558;52.028;8.536;2023-05-07T04:20:42;3.50;;;1.58;;
53654;SDS011;39558;52.028;8.536;2023-05-07T04:23:08;3.13;;;1.70;;
53654;SDS011;39558;52.028;8.536;2023-05-07T04:25:34;4.28;;;1.77;;
53654;SDS011;39558;52.028;8.536;2023-05-07T04:28:00;2.88;;;1.52;;
53654;SDS011;39558;52.028;8.536;2023-05-07T04:30:25;3.63;;;1.67;;
53654;SDS011;39558;52.028;8.536;2023-05-07T04:32:51;2.58;;;1.50;;
53654;SDS011;39558;52.028;8.536;2023-05-07T04:35:18;2.90;;;1.40;;
53654;SDS011;39558;52.028;8.536;2023-05-07T04:37:44;3.15;;;1.90;;
53654;SDS011;39558;52.028;8.536;2023-05-07T04:40:10;3.40;;;1.65;;
53654;SDS011;39558;52.028;8.536;2023-05-07T04:42:36;3.33;;;1.38;;
53654;SDS011;39558;52.028;8.536;2023-05-07T04:45:02;2.63;;;1.60;;
53654;SDS011;39558;52.028;8.536;2023-05-07T04:47:28;2.92;;;1.70;;
53654;SDS011;39558;52.028;8.536;2023-05-07T04:49:54;2.83;;;1.52;;
53654;SDS011;39558;52.028;8.536;2023-05-07T04:52:20;2.72;;;1.48;;
53654;SDS011;39558;52.028;8.536;2023-05-07T04:54:45;3.17;;;1.40;;
53654;SDS011;39558;52.028;8.536;2023-05-07T04:57:11;2.90;;;1.80;;
53654;SDS011;39558;52.028;8.536;2023-05-07T04:59:38;3.20;;;1.77;;
53654;SDS011;39558;52.028;8.536;2023-05-07T05:02:04;2.92;;;1.85;;
53654;SDS011;39558;52.028;8.536;2023-05-07T05:04:30;2.72;;;1.52;;
53654;SDS011;39558;52.028;8.536;2023-05-07T05:06:56;3.67;;;1.33;;
53654;SDS011;39558;52.028;8.536;2023-05-07T05:09:22;3.55;;;1.45;;
53654;SDS011;39558;52.028;8.536;2023-05-07T05:11:47;2.25;;;1.20;;
53654;SDS011;39558;52.028;8.536;2023-05-07T05:14:13;2.55;;;1.48;;
53654;SDS011;39558;52.028;8.536;2023-05-07T05:16:39;3.05;;;1.48;;
53654;SDS011;39558;52.028;8.536;2023-05-07T05:19:05;4.47;;;1.45;;
53654;SDS011;39558;52.028;8.536;2023-05-07T05:21:31;3.70;;;1.63;;
53654;SDS011;39558;52.028;8.536;2023-05-07T05:23:58;3.38;;;1.73;;
53654;SDS011;39558;52.028;8.536;2023-05-07T05:26:24;3.28;;;1.75;;
53654;SDS011;39558;52.028;8.536;2023-05-07T05:28:49;4.28;;;1.38;;
53654;SDS011;39558;52.028;8.536;2023-05-07T05:31:16;2.50;;;1.30;;
53654;SDS011;39558;52.028;8.536;2023-05-07T05:33:42;2.17;;;1.40;;
53654;SDS011;39558;52.028;8.536;2023-05-07T05:36:11;2.22;;;1.30;;
53654;SDS011;39558;52.028;8.536;2023-05-07T05:38:38;1.92;;;1.20;;
53654;SDS011;39558;52.028;8.536;2023-05-07T05:41:04;2.67;;;1.27;;
53654;SDS011;39558;52.028;8.536;2023-05-07T05:43:29;3.33;;;1.40;;
53654;SDS011;39558;52.028;8.536;2023-05-07T05:45:56;2.90;;;1.50;;
53654;SDS011;39558;52.028;8.536;2023-05-07T05:48:22;2.78;;;1.60;;
53654;SDS011;39558;52.028;8.536;2023-05-07T05:50:48;2.45;;;1.30;;
53654;SDS011;39558;52.028;8.536;2023-05-07T05:53:14;2.50;;;1.20;;
53654;SDS011;39558;52.028;8.536;2023-05-07T05:55:41;2.50;;;1.30;;
53654;SDS011;39558;52.028;8.536;2023-05-07T05:58:07;2.70;;;1.30;;
53654;SDS011;39558;52.028;8.536;2023-05-07T06:00:33;2.60;;;2.00;;
53654;SDS011;39558;52.028;8.536;2023-05-07T06:02:59;2.67;;;1.60;;
53654;SDS011;39558;52.028;8.536;2023-05-07T06:05:25;2.42;;;1.20;;
53654;SDS011;39558;52.028;8.536;2023-05-07T06:07:50;2.38;;;1.20;;
53654;SDS011;39558;52.028;8.536;2023-05-07T06:10:16;3.60;;;1.50;;
53654;SDS011;39558;52.028;8.536;2023-05-07T06:12:43;2.55;;;1.42;;
53654;SDS011;39558;52.028;8.536;2023-05-07T06:15:09;2.13;;;1.35;;
53654;SDS011;39558;52.028;8.536;2023-05-07T06:17:35;2.95;;;1.40;;
53654;SDS011;39558;52.028;8.536;2023-05-07T06:20:01;3.72;;;1.50;;
53654;SDS011;39558;52.028;8.536;2023-05-07T06:22:27;3.35;;;1.85;;
53654;SDS011;39558;52.028;8.536;2023-05-07T06:24:53;1.92;;;1.17;;
53654;SDS011;39558;52.028;8.536;2023-05-07T06:27:19;2.25;;;1.40;;
53654;SDS011;39558;52.028;8.536;2023-05-07T06:29:44;2.28;;;1.30;;
53654;SDS011;39558;52.028;8.536;2023-05-07T06:32:11;2.95;;;1.20;;
53654;SDS011;39558;52.028;8.536;2023-05-07T06:34:37;1.88;;;1.15;;
53654;SDS011;39558;52.028;8.536;2023-05-07T06:37:04;2.70;;;1.20;;
53654;SDS011;39558;52.028;8.536;2023-05-07T06:39:30;2.42;;;1.40;;
53654;SDS011;39558;52.028;8.536;2023-05-07T06:41:56;1.90;;;1.25;;
53654;SDS011;39558;52.028;8.536;2023-05-07T06:44:21;2.60;;;1.30;;
53654;SDS011;39558;52.028;8.536;2023-05-07T06:46:47;1.83;;;1.15;;
53654;SDS011;39558;52.028;8.536;2023-05-07T06:49:14;2.35;;;1.25;;
53654;SDS011;39558;52.028;8.536;2023-05-07T06:51:40;3.22;;;1.23;;
53654;SDS011;39558;52.028;8.536;2023-05-07T06:54:06;2.45;;;1.40;;
53654;SDS011;39558;52.028;8.536;2023-05-07T06:56:32;1.90;;;1.10;;
53654;SDS011;39558;52.028;8.536;2023-05-07T06:58:59;2.45;;;1.58;;
53654;SDS011;39558;52.028;8.536;2023-05-07T07:01:26;2.13;;;1.08;;
53654;SDS011;39558;52.028;8.536;2023-05-07T07:03:52;3.30;;;1.20;;
53654;SDS011;39558;52.028;8.536;2023-05-07T07:06:17;3.28;;;1.95;;
53654;SDS011;39558;52.028;8.536;2023-05-07T07:08:43;2.45;;;1.20;;
53654;SDS011;39558;52.028;8.536;2023-05-07T07:11:09;2.55;;;1.25;;
53654;SDS011;39558;52.028;8.536;2023-05-07T07:13:35;2.08;;;1.30;;
53654;SDS011;39558;52.028;8.536;2023-05-07T07:16:02;2.50;;;1.42;;
53654;SDS011;39558;52.028;8.536;2023-05-07T07:18:28;4.15;;;1.20;;
53654;SDS011;39558;52.028;8.536;2023-05-07T07:20:54;2.50;;;1.30;;
53654;SDS011;39558;52.028;8.536;2023-05-07T07:23:19;2.67;;;1.38;;
53654;SDS011;39558;52.028;8.536;2023-05-07T07:25:45;3.17;;;1.45;;
53654;SDS011;39558;52.028;8.536;2023-05-07T07:28:12;1.92;;;1.30;;
53654;SDS011;39558;52.028;8.536;2023-05-07T07:30:37;2.22;;;1.15;;
53654;SDS011;39558;52.028;8.536;2023-05-07T07:33:04;1.90;;;1.10;;
53654;SDS011;39558;52.028;8.536;2023-05-07T07:35:30;2.17;;;1.40;;
53654;SDS011;39558;52.028;8.536;2023-05-07T07:37:56;2.83;;;1.33;;
53654;SDS011;39558;52.028;8.536;2023-05-07T07:40:22;2.10;;;1.10;;
53654;SDS011;39558;52.028;8.536;2023-05-07T07:42:48;3.03;;;1.30;;
53654;SDS011;39558;52.028;8.536;2023-05-07T07:45:14;2.92;;;1.13;;
53654;SDS011;39558;52.028;8.536;2023-05-07T07:47:40;2.30;;;1.30;;
53654;SDS011;39558;52.028;8.536;2023-05-07T07:50:06;2.13;;;1.23;;
53654;SDS011;39558;52.028;8.536;2023-05-07T07:52:32;1.77;;;1.23;;
53654;SDS011;39558;52.028;8.536;2023-05-07T07:54:58;2.38;;;1.15;;
53654;SDS011;39558;52.028;8.536;2023-05-07T07:57:24;2.40;;;1.13;;
53654;SDS011;39558;52.028;8.536;2023-05-07T07:59:50;2.13;;;1.15;;
53654;SDS011;39558;52.028;8.536;2023-05-07T08:02:16;2.13;;;1.35;;
53654;SDS011;39558;52.028;8.536;2023-05-07T08:04:42;2.33;;;1.10;;
53654;SDS011;39558;52.028;8.536;2023-05-07T08:07:08;2.13;;;1.00;;
53654;SDS011;39558;52.028;8.536;2023-05-07T08:09:34;2.47;;;1.30;;
53654;SDS011;39558;52.028;8.536;2023-05-07T08:12:00;3.47;;;1.40;;
53654;SDS011;39558;52.028;8.536;2023-05-07T08:14:26;3.30;;;1.52;;
53654;SDS011;39558;52.028;8.536;2023-05-07T08:16:53;2.40;;;1.13;;
53654;SDS011;39558;52.028;8.536;2023-05-07T08:19:19;2.30;;;1.05;;
53654;SDS011;39558;52.028;8.536;2023-05-07T08:21:45;1.92;;;1.05;;
53654;SDS011;39558;52.028;8.536;2023-05-07T08:24:12;1.80;;;0.98;;
53654;SDS011;39558;52.028;8.536;2023-05-07T08:26:38;2.03;;;1.20;;
53654;SDS011;39558;52.028;8.536;2023-05-07T08:29:05;1.67;;;0.98;;
53654;SDS011;39558;52.028;8.536;2023-05-07T08:31:30;1.95;;;0.95;;
53654;SDS011;39558;52.028;8.536;2023-05-07T08:33:57;2.17;;;1.00;;
53654;SDS011;39558;52.028;8.536;2023-05-07T08:36:23;2.95;;;1.30;;
53654;SDS011;39558;52.028;8.536;2023-05-07T08:38:49;2.15;;;1.13;;
53654;SDS011;39558;52.028;8.536;2023-05-07T08:41:15;2.05;;;1.10;;
53654;SDS011;39558;52.028;8.536;2023-05-07T08:43:41;1.83;;;1.02;;
53654;SDS011;39558;52.028;8.536;2023-05-07T08:46:08;2.15;;;1.00;;
53654;SDS011;39558;52.028;8.536;2023-05-07T08:48:36;2.17;;;1.15;;
53654;SDS011;39558;52.028;8.536;2023-05-07T08:51:02;1.25;;;0.73;;
53654;SDS011;39558;52.028;8.536;2023-05-07T08:53:28;2.13;;;1.20;;
53654;SDS011;39558;52.028;8.536;2023-05-07T08:55:54;2.00;;;1.15;;
53654;SDS011;39558;52.028;8.536;2023-05-07T08:58:20;2.05;;;0.90;;
53654;SDS011;39558;52.028;8.536;2023-05-07T09:00:46;1.67;;;0.90;;
53654;SDS011;39558;52.028;8.536;2023-05-07T09:03:12;2.55;;;1.27;;
53654;SDS011;39558;52.028;8.536;2023-05-07T09:05:39;2.45;;;0.80;;
53654;SDS011;39558;52.028;8.536;2023-05-07T09:08:06;3.65;;;1.10;;
53654;SDS011;39558;52.028;8.536;2023-05-07T09:10:33;2.63;;;0.80;;
53654;SDS011;39558;52.028;8.536;2023-05-07T09:12:59;2.13;;;1.20;;
53654;SDS011;39558;52.028;8.536;2023-05-07T09:15:25;4.07;;;1.48;;
53654;SDS011;39558;52.028;8.536;2023-05-07T09:17:51;2.60;;;1.17;;
53654;SDS011;39558;52.028;8.536;2023-05-07T09:20:17;1.70;;;0.60;;
53654;SDS011;39558;52.028;8.536;2023-05-07T09:22:43;1.45;;;0.88;;
53654;SDS011;39558;52.028;8.536;2023-05-07T09:25:10;1.88;;;0.90;;
53654;SDS011;39558;52.028;8.536;2023-05-07T09:27:36;2.45;;;1.02;;
53654;SDS011;39558;52.028;8.536;2023-05-07T09:30:05;1.42;;;0.82;;
53654;SDS011;39558;52.028;8.536;2023-05-07T09:32:34;1.58;;;1.10;;
53654;SDS011;39558;52.028;8.536;2023-05-07T09:35:00;4.78;;;1.52;;
53654;SDS011;39558;52.028;8.536;2023-05-07T09:37:27;1.75;;;0.80;;
53654;SDS011;39558;52.028;8.536;2023-05-07T09:39:53;2.42;;;0.88;;
53654;SDS011;39558;52.028;8.536;2023-05-07T09:42:23;2.65;;;1.02;;
53654;SDS011;39558;52.028;8.536;2023-05-07T09:44:51;1.58;;;0.80;;
53654;SDS011;39558;52.028;8.536;2023-05-07T09:47:18;1.50;;;0.95;;
53654;SDS011;39558;52.028;8.536;2023-05-07T09:49:46;2.45;;;1.00;;
53654;SDS011;39558;52.028;8.536;2023-05-07T09:52:13;1.63;;;0.85;;
53654;SDS011;39558;52.028;8.536;2023-05-07T09:54:39;2.00;;;1.20;;
53654;SDS011;39558;52.028;8.536;2023-05-07T09:57:08;1.90;;;0.90;;
53654;SDS011;39558;52.028;8.536;2023-05-07T09:59:34;2.33;;;1.00;;
53654;SDS011;39558;52.028;8.536;2023-05-07T10:02:03;1.55;;;0.88;;
53654;SDS011;39558;52.028;8.536;2023-05-07T10:04:29;2.45;;;0.95;;
53654;SDS011;39558;52.028;8.536;2023-05-07T10:06:55;1.55;;;0.90;;
53654;SDS011;39558;52.028;8.536;2023-05-07T10:09:21;1.60;;;0.80;;
53654;SDS011;39558;52.028;8.536;2023-05-07T10:11:48;1.67;;;0.95;;
53654;SDS011;39558;52.028;8.536;2023-05-07T10:14:15;2.15;;;0.80;;
53654;SDS011;39558;52.028;8.536;2023-05-07T10:16:41;1.90;;;1.00;;
53654;SDS011;39558;52.028;8.536;2023-05-07T10:19:08;2.35;;;1.20;;
53654;SDS011;39558;52.028;8.536;2023-05-07T10:21:37;2.67;;;0.98;;
53654;SDS011;39558;52.028;8.536;2023-05-07T10:24:20;1.77;;;1.00;;
53654;SDS011;39558;52.028;8.536;2023-05-07T10:26:48;1.80;;;0.95;;
53654;SDS011;39558;52.028;8.536;2023-05-07T10:29:17;3.03;;;1.20;;
53654;SDS011;39558;52.028;8.536;2023-05-07T10:31:49;2.75;;;1.33;;
53654;SDS011;39558;52.028;8.536;2023-05-07T10:34:18;2.75;;;1.20;;
53654;SDS011;39558;52.028;8.536;2023-05-07T10:36:46;2.58;;;0.90;;
53654;SDS011;39558;52.028;8.536;2023-05-07T10:39:13;1.60;;;0.80;;
53654;SDS011;39558;52.028;8.536;2023-05-07T10:41:39;1.58;;;0.93;;
53654;SDS011;39558;52.028;8.536;2023-05-07T10:44:05;1.35;;;0.70;;
53654;SDS011;39558;52.028;8.536;2023-05-07T10:46:30;1.73;;;1.00;;
53654;SDS011;39558;52.028;8.536;2023-05-07T10:51:26;3.30;;;0.90;;
53654;SDS011;39558;52.028;8.536;2023-05-07T10:56:37;1.77;;;1.13;;
53654;SDS011;39558;52.028;8.536;2023-05-07T11:01:56;1.73;;;1.00;;
53654;SDS011;39558;52.028;8.536;2023-05-07T11:04:22;1.08;;;0.60;;
53654;SDS011;39558;52.028;8.536;2023-05-07T11:12:46;1.52;;;0.85;;
53654;SDS011;39558;52.028;8.536;2023-05-07T11:15:04;2.05;;;0.85;;
53654;SDS011;39558;52.028;8.536;2023-05-07T11:17:30;2.45;;;1.45;;
53654;SDS011;39558;52.028;8.536;2023-05-07T11:19:59;1.50;;;1.25;;
53654;SDS011;39558;52.028;8.536;2023-05-07T11:25:01;1.60;;;0.88;;
53654;SDS011;39558;52.028;8.536;2023-05-07T11:27:27;2.35;;;1.02;;
53654;SDS011;39558;52.028;8.536;2023-05-07T11:29:54;2.45;;;0.82;;
53654;SDS011;39558;52.028;8.536;2023-05-07T11:32:26;1.45;;;0.77;;
53654;SDS011;39558;52.028;8.536;2023-05-07T11:34:53;1.85;;;0.90;;
53654;SDS011;39558;52.028;8.536;2023-05-07T11:37:20;1.40;;;0.80;;
53654;SDS011;39558;52.028;8.536;2023-05-07T11:39:46;1.52;;;0.70;;
53654;SDS011;39558;52.028;8.536;2023-05-07T11:42:28;1.95;;;0.93;;
53654;SDS011;39558;52.028;8.536;2023-05-07T11:44:54;1.92;;;0.80;;
53654;SDS011;39558;52.028;8.536;2023-05-07T11:47:20;1.17;;;0.80;;
53654;SDS011;39558;52.028;8.536;2023-05-07T11:49:47;1.67;;;0.82;;
53654;SDS011;39558;52.028;8.536;2023-05-07T11:52:13;1.98;;;0.90;;
53654;SDS011;39558;52.028;8.536;2023-05-07T11:54:39;1.65;;;0.93;;
53654;SDS011;39558;52.028;8.536;2023-05-07T11:57:05;3.50;;;0.95;;
53654;SDS011;39558;52.028;8.536;2023-05-07T11:59:39;1.60;;;0.93;;
53654;SDS011;39558;52.028;8.536;2023-05-07T12:02:05;1.33;;;0.60;;
53654;SDS011;39558;52.028;8.536;2023-05-07T12:04:31;1.48;;;0.80;;
53654;SDS011;39558;52.028;8.536;2023-05-07T12:06:57;2.17;;;0.98;;
53654;SDS011;39558;52.028;8.536;2023-05-07T12:09:23;1.38;;;0.68;;
53654;SDS011;39558;52.028;8.536;2023-05-07T12:11:49;1.85;;;0.90;;
53654;SDS011;39558;52.028;8.536;2023-05-07T12:14:17;1.35;;;0.70;;
53654;SDS011;39558;52.028;8.536;2023-05-07T12:16:43;1.15;;;0.65;;
53654;SDS011;39558;52.028;8.536;2023-05-07T12:19:09;4.20;;;1.33;;
53654;SDS011;39558;52.028;8.536;2023-05-07T12:21:37;1.73;;;1.08;;
53654;SDS011;39558;52.028;8.536;2023-05-07T12:24:03;1.25;;;0.73;;
53654;SDS011;39558;52.028;8.536;2023-05-07T12:26:29;1.38;;;0.70;;
53654;SDS011;39558;52.028;8.536;2023-05-07T12:28:56;1.45;;;0.82;;
53654;SDS011;39558;52.028;8.536;2023-05-07T12:31:22;1.08;;;0.60;;
53654;SDS011;39558;52.028;8.536;2023-05-07T12:33:48;2.67;;;0.85;;
53654;SDS011;39558;52.028;8.536;2023-05-07T12:36:15;0.85;;;0.55;;
53654;SDS011;39558;52.028;8.536;2023-05-07T12:38:41;1.40;;;0.90;;
53654;SDS011;39558;52.028;8.536;2023-05-07T12:41:07;1.48;;;0.90;;
53654;SDS011;39558;52.028;8.536;2023-05-07T12:43:34;1.98;;;0.80;;
53654;SDS011;39558;52.028;8.536;2023-05-07T12:46:00;2.72;;;0.95;;
53654;SDS011;39558;52.028;8.536;2023-05-07T12:48:26;1.80;;;0.85;;
53654;SDS011;39558;52.028;8.536;2023-05-07T12:50:52;2.47;;;0.90;;
53654;SDS011;39558;52.028;8.536;2023-05-07T12:53:20;1.70;;;0.88;;
53654;SDS011;39558;52.028;8.536;2023-05-07T12:55:46;1.42;;;0.73;;
53654;SDS011;39558;52.028;8.536;2023-05-07T12:58:16;1.35;;;0.80;;
53654;SDS011;39558;52.028;8.536;2023-05-07T13:00:43;1.33;;;0.80;;
53654;SDS011;39558;52.028;8.536;2023-05-07T13:03:09;1.27;;;0.70;;
53654;SDS011;39558;52.028;8.536;2023-05-07T13:05:35;1.40;;;0.80;;
53654;SDS011;39558;52.028;8.536;2023-05-07T13:08:01;1.00;;;0.60;;
53654;SDS011;39558;52.028;8.536;2023-05-07T13:10:27;3.40;;;0.93;;
53654;SDS011;39558;52.028;8.536;2023-05-07T13:12:53;1.08;;;0.70;;
53654;SDS011;39558;52.028;8.536;2023-05-07T13:15:19;1.60;;;0.75;;
53654;SDS011;39558;52.028;8.536;2023-05-07T13:17:45;1.35;;;0.68;;
53654;SDS011;39558;52.028;8.536;2023-05-07T13:20:11;1.40;;;0.77;;
53654;SDS011;39558;52.028;8.536;2023-05-07T13:22:37;1.33;;;0.77;;
53654;SDS011;39558;52.028;8.536;2023-05-07T13:25:03;1.55;;;0.75;;
53654;SDS011;39558;52.028;8.536;2023-05-07T13:27:29;1.83;;;0.80;;
53654;SDS011;39558;52.028;8.536;2023-05-07T13:29:55;1.35;;;0.70;;
53654;SDS011;39558;52.028;8.536;2023-05-07T13:32:21;1.25;;;0.60;;
53654;SDS011;39558;52.028;8.536;2023-05-07T13:34:47;2.83;;;0.70;;
53654;SDS011;39558;52.028;8.536;2023-05-07T13:37:13;0.70;;;0.50;;
53654;SDS011;39558;52.028;8.536;2023-05-07T13:39:39;1.20;;;0.68;;
53654;SDS011;39558;52.028;8.536;2023-05-07T13:42:05;1.90;;;0.80;;
53654;SDS011;39558;52.028;8.536;2023-05-07T13:44:31;2.22;;;1.05;;
53654;SDS011;39558;52.028;8.536;2023-05-07T13:46:58;2.33;;;0.75;;
53654;SDS011;39558;52.028;8.536;2023-05-07T13:49:24;1.67;;;0.73;;
53654;SDS011;39558;52.028;8.536;2023-05-07T13:51:50;1.38;;;0.88;;
53654;SDS011;39558;52.028;8.536;2023-05-07T13:54:15;1.20;;;0.70;;
53654;SDS011;39558;52.028;8.536;2023-05-07T13:56:41;1.55;;;0.98;;
53654;SDS011;39558;52.028;8.536;2023-05-07T13:59:07;2.00;;;1.20;;
53654;SDS011;39558;52.028;8.536;2023-05-07T14:01:33;2.13;;;1.00;;
53654;SDS011;39558;52.028;8.536;2023-05-07T14:03:59;1.20;;;0.68;;
53654;SDS011;39558;52.028;8.536;2023-05-07T14:06:25;2.10;;;1.00;;
53654;SDS011;39558;52.028;8.536;2023-05-07T14:08:51;1.77;;;0.70;;
53654;SDS011;39558;52.028;8.536;2023-05-07T14:11:17;1.50;;;0.77;;
53654;SDS011;39558;52.028;8.536;2023-05-07T14:13:43;1.67;;;0.85;;
53654;SDS011;39558;52.028;8.536;2023-05-07T14:16:09;1.23;;;0.50;;
53654;SDS011;39558;52.028;8.536;2023-05-07T14:18:35;1.02;;;0.47;;
53654;SDS011;39558;52.028;8.536;2023-05-07T14:21:01;1.83;;;0.70;;
53654;SDS011;39558;52.028;8.536;2023-05-07T14:23:27;1.88;;;0.88;;
53654;SDS011;39558;52.028;8.536;2023-05-07T14:25:54;1.08;;;0.55;;
53654;SDS011;39558;52.028;8.536;2023-05-07T14:28:22;1.75;;;0.80;;
53654;SDS011;39558;52.028;8.536;2023-05-07T14:30:47;1.33;;;0.80;;
53654;SDS011;39558;52.028;8.536;2023-05-07T14:33:13;1.52;;;0.77;;
53654;SDS011;39558;52.028;8.536;2023-05-07T14:35:39;2.25;;;0.68;;
53654;SDS011;39558;52.028;8.536;2023-05-07T14:38:05;1.17;;;0.70;;
53654;SDS011;39558;52.028;8.536;2023-05-07T14:40:31;1.08;;;0.60;;
53654;SDS011;39558;52.028;8.536;2023-05-07T14:42:57;1.17;;;0.60;;
53654;SDS011;39558;52.028;8.536;2023-05-07T14:45:23;1.35;;;0.80;;
53654;SDS011;39558;52.028;8.536;2023-05-07T14:47:49;2.15;;;0.80;;
53654;SDS011;39558;52.028;8.536;2023-05-07T14:50:15;1.00;;;0.45;;
53654;SDS011;39558;52.028;8.536;2023-05-07T14:52:41;1.27;;;0.70;;
53654;SDS011;39558;52.028;8.536;2023-05-07T14:55:07;3.15;;;0.70;;
53654;SDS011;39558;52.028;8.536;2023-05-07T14:57:33;1.25;;;0.60;;
53654;SDS011;39558;52.028;8.536;2023-05-07T15:00:01;1.23;;;0.70;;